createdAt,value
2019-04-14T00:01:04.338Z,8.27
2019-04-14T00:03:45.431Z,8.90
2019-04-14T00:06:20.743Z,7.57
2019-04-14T00:08:56.517Z,8.87
2019-04-14T00:11:34.376Z,7.43
2019-04-14T00:14:14.170Z,7.97
2019-04-14T00:16:49.613Z,7.50
2019-04-14T00:19:26.869Z,7.30
2019-04-14T00:22:03.276Z,8.17
2019-04-14T00:24:38.352Z,7.83
2019-04-14T00:27:13.400Z,7.87
2019-04-14T00:29:48.839Z,8.33
2019-04-14T00:32:24.835Z,6.77
2019-04-14T00:35:18.796Z,8.43
2019-04-14T00:38:06.385Z,8.53
2019-04-14T00:40:43.305Z,5.93
2019-04-14T00:43:37.395Z,8.60
2019-04-14T00:46:17.087Z,7.37
2019-04-14T00:48:52.114Z,8.60
2019-04-14T00:51:27.156Z,3.90
2019-04-14T00:54:02.559Z,9.10
2019-04-14T00:56:39.048Z,9.20
2019-04-14T00:59:14.118Z,8.13
2019-04-14T01:01:49.139Z,9.73
2019-04-14T01:04:25.115Z,7.60
2019-04-14T01:07:00.457Z,8.67
2019-04-14T01:09:35.488Z,8.87
2019-04-14T01:12:10.538Z,7.83
2019-04-14T01:14:45.645Z,9.17
2019-04-14T01:17:21.935Z,7.07
2019-04-14T01:19:57.107Z,9.03
2019-04-14T01:22:32.117Z,8.67
2019-04-14T01:25:08.627Z,9.33
2019-04-14T01:27:45.142Z,9.67
2019-04-14T01:30:21.982Z,7.93
2019-04-14T01:32:57.037Z,9.30
2019-04-14T01:35:33.562Z,10.30
2019-04-14T01:38:08.557Z,8.87
2019-04-14T01:40:44.576Z,9.60
2019-04-14T01:43:19.710Z,9.30
2019-04-14T01:46:07.177Z,9.87
2019-04-14T01:48:32.437Z,9.87
2019-04-14T01:51:09.309Z,9.20
2019-04-14T01:53:47.035Z,9.80
2019-04-14T01:56:40.550Z,6.90
2019-04-14T01:59:17.301Z,10.43
2019-04-14T02:01:58.611Z,10.10
2019-04-14T02:04:33.828Z,10.37
2019-04-14T02:07:10.126Z,10.50
2019-04-14T02:09:45.311Z,11.13
2019-04-14T02:12:21.422Z,10.73
2019-04-14T02:14:58.254Z,10.03
2019-04-14T02:17:34.941Z,8.10
2019-04-14T02:20:10.515Z,9.00
2019-04-14T02:22:46.351Z,7.30
2019-04-14T02:25:21.403Z,10.20
2019-04-14T02:27:58.021Z,9.80
2019-04-14T02:30:41.443Z,9.77
2019-04-14T02:39:22.374Z,9.60
2019-04-14T02:41:51.322Z,9.13
2019-04-14T02:44:04.585Z,8.90
2019-04-14T02:46:47.703Z,6.70
2019-04-14T02:49:16.854Z,8.83
2019-04-14T02:54:37.019Z,8.83
2019-04-14T02:57:15.117Z,8.93
2019-04-14T02:59:45.285Z,9.90
2019-04-14T03:02:29.616Z,8.67
2019-04-14T03:04:59.998Z,9.57
2019-04-14T03:07:38.203Z,10.27
2019-04-14T03:10:16.341Z,8.23
2019-04-14T03:12:46.552Z,9.37
2019-04-14T03:15:25.353Z,8.57
2019-04-14T03:18:24.443Z,9.13
2019-04-14T03:23:48.968Z,8.90
2019-04-14T03:26:27.525Z,9.17
2019-04-14T03:29:13.151Z,9.10
2019-04-14T03:31:59.733Z,8.70
2019-04-14T03:39:44.332Z,9.77
2019-04-14T03:42:21.447Z,8.07
2019-04-14T03:44:51.048Z,9.57
2019-04-14T03:47:31.253Z,8.97
2019-04-14T03:53:12.006Z,8.43
2019-04-14T03:55:18.862Z,8.40
2019-04-14T03:57:37.001Z,9.03
2019-04-14T04:00:13.780Z,8.40
2019-04-14T04:02:48.878Z,7.97
2019-04-14T04:05:23.892Z,9.80
2019-04-14T04:07:58.914Z,8.17
2019-04-14T04:10:35.751Z,7.77
2019-04-14T04:13:10.793Z,7.57
2019-04-14T04:15:50.421Z,10.33
2019-04-14T04:18:47.377Z,11.17
2019-04-14T04:21:24.824Z,6.90
2019-04-14T04:24:04.459Z,8.40
2019-04-14T04:26:47.188Z,8.33
2019-04-14T04:29:24.484Z,9.73
2019-04-14T04:32:07.840Z,9.07
2019-04-14T04:34:44.638Z,9.20
2019-04-14T04:37:26.015Z,9.27
2019-04-14T04:40:02.980Z,9.80
2019-04-14T04:42:38.037Z,10.43
2019-04-14T04:45:32.009Z,10.27
2019-04-14T04:48:08.906Z,9.90
2019-04-14T04:50:45.247Z,10.07
2019-04-14T04:53:20.539Z,10.57
2019-04-14T04:55:56.820Z,10.40
2019-04-14T04:58:32.775Z,9.30
2019-04-14T05:01:07.928Z,8.63
2019-04-14T05:03:42.953Z,10.20
2019-04-14T05:06:41.987Z,7.87
2019-04-14T05:09:38.761Z,8.73
2019-04-14T05:12:19.574Z,8.70
2019-04-14T05:15:03.597Z,9.63
2019-04-14T05:17:45.261Z,6.87
2019-04-14T05:20:20.435Z,9.00
2019-04-14T05:22:55.716Z,8.27
2019-04-14T05:25:31.752Z,9.10
2019-04-14T05:28:09.110Z,8.93
2019-04-14T05:30:44.200Z,8.80
2019-04-14T05:33:20.629Z,10.40
2019-04-14T05:35:57.341Z,8.57
2019-04-14T05:38:33.908Z,10.43
2019-04-14T05:41:09.270Z,10.20
2019-04-14T05:43:51.425Z,8.40
2019-04-14T05:46:21.032Z,8.00
2019-04-14T05:48:56.057Z,9.17
2019-04-14T05:51:33.292Z,9.10
2019-04-14T05:54:09.992Z,9.17
2019-04-14T05:56:47.065Z,8.10
2019-04-14T05:59:22.509Z,8.67
2019-04-14T06:01:57.533Z,8.13
2019-04-14T06:04:33.188Z,7.43
2019-04-14T06:07:08.269Z,8.80
2019-04-14T06:09:47.240Z,5.70
2019-04-14T06:12:22.263Z,7.40
2019-04-14T06:14:57.626Z,6.30
2019-04-14T06:17:32.681Z,7.97
2019-04-14T06:20:07.866Z,7.60
2019-04-14T06:22:43.540Z,6.77
2019-04-14T06:25:18.817Z,7.00
2019-04-14T06:27:53.856Z,6.80
2019-04-14T06:30:36.820Z,7.37
2019-04-14T06:33:13.493Z,7.73
2019-04-14T06:35:50.159Z,7.13
2019-04-14T06:38:26.815Z,7.93
2019-04-14T06:41:03.738Z,6.83
2019-04-14T06:43:48.302Z,7.07
2019-04-14T06:46:15.806Z,7.47
2019-04-14T06:48:50.848Z,6.40
2019-04-14T06:51:25.878Z,6.53
2019-04-14T06:54:00.896Z,7.00
2019-04-14T06:56:36.201Z,7.67
2019-04-14T06:59:11.218Z,7.43
2019-04-14T07:01:46.265Z,7.70
2019-04-14T07:04:21.273Z,8.10
2019-04-14T07:06:56.322Z,7.43
2019-04-14T07:09:31.798Z,7.03
2019-04-14T07:12:07.688Z,8.10
2019-04-14T07:14:43.202Z,8.27
2019-04-14T07:17:18.365Z,7.90
2019-04-14T07:20:01.807Z,8.57
2019-04-14T07:22:30.246Z,7.50
2019-04-14T07:25:05.940Z,9.07
2019-04-14T07:27:40.974Z,7.80
2019-04-14T07:30:37.067Z,8.30
2019-04-14T07:33:33.161Z,8.57
2019-04-14T07:36:19.707Z,7.63
2019-04-14T07:39:14.217Z,9.23
2019-04-14T07:42:07.424Z,9.97
2019-04-14T07:45:01.698Z,10.70
2019-04-14T07:47:39.931Z,8.37
2019-04-14T07:50:30.177Z,8.80
2019-04-14T07:53:23.385Z,8.10
2019-04-14T07:56:15.256Z,8.57
2019-04-14T07:59:09.521Z,9.40
2019-04-14T08:01:46.487Z,8.23
2019-04-14T08:04:23.601Z,10.57
2019-04-14T08:06:59.257Z,9.73
2019-04-14T08:09:35.626Z,10.37
2019-04-14T08:12:15.739Z,10.50
2019-04-14T08:14:50.999Z,10.07
2019-04-14T08:17:26.347Z,9.07
2019-04-14T08:20:01.435Z,9.67
2019-04-14T08:22:36.711Z,11.27
2019-04-14T08:25:12.185Z,11.17
2019-04-14T08:27:52.385Z,9.83
2019-04-14T08:30:27.564Z,12.27
2019-04-14T08:33:03.246Z,9.80
2019-04-14T08:35:39.400Z,10.40
2019-04-14T08:38:15.019Z,11.20
2019-04-14T08:40:50.086Z,10.00
2019-04-14T08:43:26.763Z,12.33
2019-04-14T08:46:20.939Z,10.27
2019-04-14T08:48:57.809Z,10.03
2019-04-14T08:51:41.028Z,11.70
2019-04-14T08:54:17.695Z,11.67
2019-04-14T08:57:00.508Z,12.50
2019-04-14T08:59:50.397Z,10.27
2019-04-14T09:02:40.172Z,9.70
2019-04-14T09:05:16.845Z,10.83
2019-04-14T09:08:07.030Z,10.10
2019-04-14T09:10:43.704Z,10.90
2019-04-14T09:13:19.052Z,11.57
2019-04-14T09:15:54.203Z,10.60
2019-04-14T09:18:29.193Z,10.77
2019-04-14T09:21:04.254Z,8.97
2019-04-14T09:23:39.593Z,11.13
2019-04-14T09:26:14.933Z,12.20
2019-04-14T09:28:50.044Z,9.73
2019-04-14T09:31:25.065Z,10.20
2019-04-14T09:34:00.185Z,11.30
2019-04-14T09:36:37.125Z,10.43
2019-04-14T09:39:13.070Z,8.90
2019-04-14T09:41:48.733Z,11.20
2019-04-14T09:44:24.977Z,11.43
2019-04-14T09:47:00.084Z,12.33
2019-04-14T09:49:35.380Z,9.20
2019-04-14T09:52:10.718Z,10.27
2019-04-14T09:54:46.072Z,12.30
2019-04-14T09:57:21.431Z,11.83
2019-04-14T09:59:56.767Z,11.33
2019-04-14T10:02:32.092Z,11.67
2019-04-14T10:05:07.582Z,9.87
2019-04-14T10:07:42.989Z,11.13
2019-04-14T10:10:18.361Z,10.43
2019-04-14T10:12:53.644Z,11.67
2019-04-14T10:15:28.690Z,10.37
2019-04-14T10:18:03.759Z,10.70
2019-04-14T10:20:38.855Z,11.27
2019-04-14T10:23:13.877Z,10.33
2019-04-14T10:25:48.910Z,11.90
2019-04-14T10:28:23.951Z,11.23
2019-04-14T10:30:58.976Z,10.67
2019-04-14T10:33:34.356Z,11.50
2019-04-14T10:36:09.709Z,11.97
2019-04-14T10:38:44.747Z,10.70
2019-04-14T10:41:19.780Z,10.43
2019-04-14T10:43:54.861Z,10.33
2019-04-14T10:46:30.260Z,12.40
2019-04-14T10:49:05.596Z,11.73
2019-04-14T10:51:40.641Z,10.73
2019-04-14T10:54:15.937Z,10.63
2019-04-14T10:56:50.982Z,10.90
2019-04-14T10:59:27.489Z,10.63
2019-04-14T11:02:06.301Z,10.73
2019-04-14T11:04:41.701Z,12.03
2019-04-14T11:07:21.570Z,11.07
2019-04-14T11:09:56.600Z,9.33
2019-04-14T11:12:31.985Z,10.97
2019-04-14T11:15:07.952Z,11.17
2019-04-14T11:17:42.992Z,11.43
2019-04-14T11:20:18.036Z,10.77
2019-04-14T11:23:03.294Z,11.20
2019-04-14T11:25:30.741Z,10.10
2019-04-14T11:28:05.839Z,10.47
2019-04-14T11:30:40.941Z,10.47
2019-04-14T11:33:17.608Z,10.67
2019-04-14T11:35:54.294Z,9.43
2019-04-14T11:38:30.967Z,10.83
2019-04-14T11:41:14.256Z,10.17
2019-04-14T11:43:49.288Z,10.93
2019-04-14T11:46:24.628Z,9.83
2019-04-14T11:48:59.694Z,10.47
2019-04-14T11:51:34.731Z,10.70
2019-04-14T11:54:11.336Z,8.37
2019-04-14T11:56:46.347Z,11.07
2019-04-14T11:59:23.010Z,10.80
2019-04-14T12:02:05.931Z,10.17
2019-04-14T12:04:45.671Z,9.13
2019-04-14T12:07:25.824Z,9.43
2019-04-14T12:10:02.787Z,7.97
2019-04-14T12:12:38.152Z,10.57
2019-04-14T12:15:16.589Z,10.57
2019-04-14T12:17:52.017Z,9.20
2019-04-14T12:20:27.049Z,10.03
2019-04-14T12:23:02.472Z,10.03
2019-04-14T12:25:37.918Z,9.60
2019-04-14T12:28:13.580Z,8.80
2019-04-14T12:30:48.942Z,9.63
2019-04-14T12:33:24.113Z,11.53
2019-04-14T12:36:01.138Z,9.17
2019-04-14T12:38:36.685Z,9.87
2019-04-14T12:41:13.633Z,9.17
2019-04-14T12:43:53.924Z,9.23
2019-04-14T12:46:33.672Z,8.83
2019-04-14T12:49:10.726Z,9.97
2019-04-14T12:51:57.486Z,9.97
2019-04-14T12:54:33.768Z,10.03
2019-04-14T12:57:09.181Z,10.07
2019-04-14T12:59:44.231Z,11.37
2019-04-14T13:02:24.258Z,9.57
2019-04-14T13:04:59.598Z,10.27
2019-04-14T13:07:36.866Z,9.27
2019-04-14T13:10:11.931Z,9.83
2019-04-14T13:12:46.982Z,9.10
2019-04-14T13:15:22.408Z,9.13
2019-04-14T13:17:57.951Z,8.93
2019-04-14T13:20:33.292Z,9.13
2019-04-14T13:23:14.883Z,7.47
2019-04-14T13:25:45.663Z,9.50
2019-04-14T13:28:21.188Z,8.87
2019-04-14T13:30:57.278Z,9.27
2019-04-14T13:33:32.501Z,9.80
2019-04-14T13:36:07.664Z,9.17
2019-04-14T13:38:43.011Z,8.97
2019-04-14T13:41:19.898Z,8.17
2019-04-14T13:43:56.069Z,8.20
2019-04-14T13:46:32.590Z,9.47
2019-04-14T13:49:10.076Z,8.33
2019-04-14T13:51:45.261Z,8.70
2019-04-14T13:54:21.241Z,8.43
2019-04-14T13:56:56.277Z,8.83
2019-04-14T13:59:32.842Z,8.47
2019-04-14T14:02:08.204Z,8.07
2019-04-14T14:04:43.647Z,7.97
2019-04-14T14:07:18.680Z,5.53
2019-04-14T14:09:57.115Z,9.73
2019-04-14T14:12:36.860Z,7.67
2019-04-14T14:15:13.930Z,8.37
2019-04-14T14:17:51.143Z,8.03
2019-04-14T14:20:44.424Z,8.40
2019-04-14T14:23:27.786Z,8.27
2019-04-14T14:26:04.116Z,7.80
2019-04-14T14:28:39.588Z,8.27
2019-04-14T14:31:18.493Z,7.83
2019-04-14T14:33:54.321Z,7.33
2019-04-14T14:36:29.579Z,7.73
2019-04-14T14:39:07.748Z,8.10
2019-04-14T14:41:43.591Z,9.10
2019-04-14T14:44:20.056Z,8.83
2019-04-14T14:46:56.736Z,8.80
2019-04-14T14:49:51.039Z,8.40
2019-04-14T14:52:27.399Z,8.40
2019-04-14T14:55:03.661Z,9.30
2019-04-14T14:57:38.999Z,8.33
2019-04-14T15:00:22.364Z,8.93
2019-04-14T15:02:57.493Z,6.93
2019-04-14T15:05:32.690Z,8.73
2019-04-14T15:08:07.951Z,9.13
2019-04-14T15:10:45.723Z,8.17
2019-04-14T15:13:21.114Z,8.20
2019-04-14T15:15:56.214Z,10.00
2019-04-14T15:18:31.408Z,9.10
2019-04-14T15:21:06.554Z,8.60
2019-04-14T15:23:41.960Z,9.50
2019-04-14T15:26:17.131Z,8.60
2019-04-14T15:28:52.471Z,7.93
2019-04-14T15:31:27.807Z,8.53
2019-04-14T15:34:03.400Z,8.10
2019-04-14T15:36:39.080Z,7.47
2019-04-14T15:39:14.836Z,8.10
2019-04-14T15:41:50.378Z,8.97
2019-04-14T15:44:25.436Z,6.93
2019-04-14T15:47:00.751Z,7.30
2019-04-14T15:49:38.050Z,7.80
2019-04-14T15:52:13.373Z,8.20
2019-04-14T15:54:48.722Z,7.80
2019-04-14T15:57:38.301Z,8.30
2019-04-14T16:00:15.065Z,9.27
2019-04-14T16:03:09.562Z,8.67
2019-04-14T16:06:06.143Z,10.33
2019-04-14T16:08:49.654Z,6.97
2019-04-14T16:11:40.079Z,8.33
2019-04-14T16:14:17.017Z,9.13
2019-04-14T16:17:06.868Z,12.53
2019-04-14T16:19:54.668Z,9.33
2019-04-14T16:22:29.726Z,9.20
2019-04-14T16:25:06.228Z,8.83
2019-04-14T16:27:49.055Z,8.57
2019-04-14T16:30:44.579Z,8.17
2019-04-14T16:33:24.378Z,8.73
2019-04-14T16:35:59.797Z,8.53
2019-04-14T16:38:35.103Z,9.27
2019-04-14T16:41:10.475Z,8.20
2019-04-14T16:43:59.420Z,7.93
2019-04-14T16:47:08.400Z,8.70
2019-04-14T16:49:50.332Z,8.90
2019-04-14T16:52:27.418Z,8.57
2019-04-14T16:55:22.454Z,7.77
2019-04-14T16:58:02.289Z,8.10
2019-04-14T17:00:39.584Z,9.30
2019-04-14T17:03:16.173Z,7.90
2019-04-14T17:05:51.308Z,9.43
2019-04-14T17:08:27.794Z,7.80
2019-04-14T17:11:03.451Z,9.00
2019-04-14T17:13:42.391Z,9.47
2019-04-14T17:16:22.713Z,7.97
2019-04-14T17:19:32.425Z,9.00
2019-04-14T17:22:15.397Z,7.70
2019-04-14T17:25:10.514Z,8.43
2019-04-14T17:28:04.794Z,8.40
2019-04-14T17:30:54.773Z,9.53
2019-04-14T17:33:34.546Z,8.00
2019-04-14T17:36:28.538Z,7.13
2019-04-14T17:39:11.594Z,8.03
2019-04-14T17:41:49.807Z,8.20
2019-04-14T17:44:28.438Z,7.90
2019-04-14T17:47:17.927Z,9.93
2019-04-14T17:50:41.010Z,8.27
2019-04-14T17:53:26.564Z,7.80
2019-04-14T17:56:03.263Z,8.17
2019-04-14T17:58:53.360Z,7.23
2019-04-14T18:01:30.349Z,7.57
2019-04-14T18:04:25.029Z,7.30
2019-04-14T18:07:13.378Z,7.97
2019-04-14T18:09:59.219Z,7.13
2019-04-14T18:12:42.169Z,7.47
2019-04-14T18:15:29.175Z,7.43
2019-04-14T18:18:17.031Z,7.20
2019-04-14T18:20:54.761Z,6.50
2019-04-14T18:23:31.040Z,7.57
2019-04-14T18:26:09.458Z,8.83
2019-04-14T18:28:56.272Z,7.87
2019-04-14T18:31:39.815Z,6.73
2019-04-14T18:34:16.591Z,7.73
2019-04-14T18:37:07.426Z,11.10
2019-04-14T18:39:44.434Z,6.53
2019-04-14T18:42:33.929Z,6.30
2019-04-14T18:45:28.883Z,6.10
2019-04-14T18:48:21.682Z,7.03
2019-04-14T18:50:58.636Z,6.10
2019-04-14T18:53:45.699Z,6.90
2019-04-14T18:56:41.021Z,6.93
2019-04-14T18:59:29.641Z,5.83
2019-04-14T19:02:05.250Z,5.77
2019-04-14T19:04:40.799Z,5.20
2019-04-14T19:07:16.238Z,5.33
2019-04-14T19:09:51.663Z,5.60
2019-04-14T19:12:34.957Z,4.73
2019-04-14T19:15:14.155Z,4.43
2019-04-14T19:17:51.227Z,5.20
2019-04-14T19:20:26.612Z,4.53
2019-04-14T19:23:01.767Z,5.83
2019-04-14T19:25:38.268Z,5.07
2019-04-14T19:28:14.489Z,4.87
2019-04-14T19:30:50.319Z,6.67
2019-04-14T19:33:25.540Z,4.63
2019-04-14T19:36:01.027Z,4.83
2019-04-14T19:38:42.875Z,4.97
2019-04-14T19:41:18.526Z,4.90
2019-04-14T19:43:54.511Z,6.10
2019-04-14T19:46:29.835Z,5.67
2019-04-14T19:49:05.161Z,6.07
2019-04-14T19:51:40.737Z,6.03
2019-04-14T19:54:15.908Z,5.77
2019-04-14T19:56:53.440Z,7.47
2019-04-14T19:59:31.541Z,6.17
2019-04-14T20:02:06.750Z,4.43
2019-04-14T20:04:42.871Z,4.80
2019-04-14T20:07:18.250Z,6.07
2019-04-14T20:09:53.316Z,4.70
2019-04-14T20:12:30.158Z,5.67
2019-04-14T20:15:08.106Z,5.30
2019-04-14T20:17:44.908Z,5.17
2019-04-14T20:20:43.741Z,4.50
2019-04-14T20:23:34.373Z,4.90
2019-04-14T20:26:20.657Z,4.27
2019-04-14T20:29:01.507Z,4.07
2019-04-14T20:31:45.032Z,4.87
2019-04-14T20:34:20.116Z,4.20
2019-04-14T20:36:55.521Z,5.33
2019-04-14T20:39:31.013Z,3.90
2019-04-14T20:42:07.037Z,4.47
2019-04-14T20:44:43.068Z,4.23
2019-04-14T20:47:18.461Z,4.90
2019-04-14T20:49:53.473Z,4.03
2019-04-14T20:52:28.542Z,4.33
2019-04-14T20:55:05.488Z,4.30
2019-04-14T20:57:40.928Z,3.87
2019-04-14T21:00:20.800Z,4.63
2019-04-14T21:03:12.365Z,4.60
2019-04-14T21:05:58.647Z,4.67
2019-04-14T21:08:52.873Z,5.23
2019-04-14T21:11:29.644Z,4.30
2019-04-14T21:14:09.406Z,3.50
2019-04-14T21:17:01.162Z,3.87
2019-04-14T21:19:37.871Z,4.30
2019-04-14T21:22:32.029Z,4.73
2019-04-14T21:25:09.755Z,4.20
2019-04-14T21:27:49.526Z,5.40
2019-04-14T21:30:43.690Z,3.97
2019-04-14T21:33:21.618Z,5.27
2019-04-14T21:35:58.318Z,5.47
2019-04-14T21:38:55.517Z,4.30
2019-04-14T21:41:32.638Z,4.57
2019-04-14T21:44:07.653Z,4.77
2019-04-14T21:46:43.007Z,5.07
2019-04-14T21:49:18.028Z,4.70
2019-04-14T21:51:54.760Z,5.53
2019-04-14T21:54:29.822Z,4.27
2019-04-14T21:57:25.686Z,4.87
2019-04-14T22:00:06.461Z,5.30
2019-04-14T22:03:02.290Z,4.50
2019-04-14T22:05:48.794Z,4.73
2019-04-14T22:08:32.623Z,4.43
2019-04-14T22:11:09.368Z,4.40
2019-04-14T22:13:46.374Z,4.40
2019-04-14T22:16:21.482Z,4.33
2019-04-14T22:18:56.492Z,5.90
2019-04-14T22:21:31.523Z,5.60
2019-04-14T22:24:06.919Z,5.10
2019-04-14T22:26:41.979Z,5.33
2019-04-14T22:29:16.992Z,4.90
2019-04-14T22:31:52.437Z,5.07
2019-04-14T22:34:27.805Z,4.93
2019-04-14T22:37:02.851Z,5.30
2019-04-14T22:39:39.306Z,4.67
2019-04-14T22:42:14.594Z,5.00
2019-04-14T22:44:49.605Z,5.20
2019-04-14T22:47:24.644Z,4.43
2019-04-14T22:49:59.650Z,4.97
2019-04-14T22:52:34.970Z,6.03
2019-04-14T22:55:10.064Z,5.20
2019-04-14T22:57:45.088Z,6.20
2019-04-14T23:00:41.183Z,5.07
2019-04-14T23:03:18.226Z,4.67
2019-04-14T23:05:55.248Z,4.53
2019-04-14T23:08:38.594Z,4.90
2019-04-14T23:11:21.506Z,5.20
2019-04-14T23:14:01.115Z,4.57
2019-04-14T23:16:55.297Z,5.00
2019-04-14T23:19:49.456Z,4.70
2019-04-14T23:22:38.834Z,5.40
2019-04-14T23:25:13.901Z,6.30
2019-04-14T23:27:48.924Z,5.57
2019-04-14T23:30:23.960Z,5.57
2019-04-14T23:32:58.992Z,5.13
2019-04-14T23:35:34.359Z,5.63
2019-04-14T23:38:09.388Z,5.67
2019-04-14T23:40:45.656Z,4.80
2019-04-14T23:43:20.752Z,5.10
2019-04-14T23:45:56.963Z,5.30
2019-04-14T23:48:31.970Z,5.30
2019-04-14T23:51:07.003Z,4.77
2019-04-14T23:53:42.020Z,5.40
2019-04-14T23:56:17.054Z,4.10
2019-04-14T23:58:52.073Z,4.97
